sensor_id;sensor_type;location;lat;lon;timestamp;pressure;altitude;pressure_sealevel;temperature;humidity
21817;BME280;13247;47.504;7.382;2023-04-28T00:00:42;97113.09;;;14.47;100.00
21817;BME280;13247;47.504;7.382;2023-04-28T00:03:26;97108.31;;;14.38;100.00
21817;BME280;13247;47.504;7.382;2023-04-28T00:06:11;97105.81;;;14.69;100.00
21817;BME280;13247;47.504;7.382;2023-04-28T00:08:56;97107.22;;;14.59;100.00
21817;BME280;13247;47.504;7.382;2023-04-28T00:11:43;97096.72;;;14.74;100.00
21817;BME280;13247;47.504;7.382;2023-04-28T00:14:28;97103.84;;;14.89;100.00
21817;BME280;13247;47.504;7.382;2023-04-28T00:17:12;97107.25;;;14.91;100.00
21817;BME280;13247;47.504;7.382;2023-04-28T00:19:57;97108.97;;;14.92;100.00
21817;BME280;13247;47.504;7.382;2023-04-28T00:22:42;97103.94;;;14.88;100.00
21817;BME280;13247;47.504;7.382;2023-04-28T00:25:27;97099.22;;;14.77;100.00
21817;BME280;13247;47.504;7.382;2023-04-28T00:28:11;97100.75;;;14.81;100.00
21817;BME280;13247;47.504;7.382;2023-04-28T00:30:56;97105.72;;;14.70;100.00
21817;BME280;13247;47.504;7.382;2023-04-28T00:33:44;97115.00;;;14.26;100.00
21817;BME280;13247;47.504;7.382;2023-04-28T00:36:28;97121.78;;;13.96;100.00
21817;BME280;13247;47.504;7.382;2023-04-28T00:39:16;97119.00;;;14.52;100.00
21817;BME280;13247;47.504;7.382;2023-04-28T00:42:02;97108.13;;;14.75;100.00
21817;BME280;13247;47.504;7.382;2023-04-28T00:44:48;97107.81;;;14.81;100.00
21817;BME280;13247;47.504;7.382;2023-04-28T00:47:33;97113.09;;;14.64;100.00
21817;BME280;13247;47.504;7.382;2023-04-28T00:50:18;97113.75;;;14.16;100.00
21817;BME280;13247;47.504;7.382;2023-04-28T00:53:03;97118.38;;;14.11;100.00
21817;BME280;13247;47.504;7.382;2023-04-28T00:55:49;97110.31;;;14.14;100.00
21817;BME280;13247;47.504;7.382;2023-04-28T00:58:35;97104.81;;;14.37;100.00
21817;BME280;13247;47.504;7.382;2023-04-28T01:01:20;97089.91;;;14.53;100.00
21817;BME280;13247;47.504;7.382;2023-04-28T01:04:05;97076.69;;;14.53;100.00
21817;BME280;13247;47.504;7.382;2023-04-28T01:06:52;97064.84;;;14.45;100.00
21817;BME280;13247;47.504;7.382;2023-04-28T01:09:37;97064.81;;;14.62;100.00
21817;BME280;13247;47.504;7.382;2023-04-28T01:12:22;97077.66;;;14.69;100.00
21817;BME280;13247;47.504;7.382;2023-04-28T01:15:11;97076.72;;;15.03;100.00
21817;BME280;13247;47.504;7.382;2023-04-28T01:17:59;97083.72;;;14.87;100.00
21817;BME280;13247;47.504;7.382;2023-04-28T01:20:43;97078.50;;;14.53;100.00
21817;BME280;13247;47.504;7.382;2023-04-28T01:23:28;97085.94;;;14.62;100.00
21817;BME280;13247;47.504;7.382;2023-04-28T01:26:13;97081.84;;;14.56;100.00
21817;BME280;13247;47.504;7.382;2023-04-28T01:28:58;97074.56;;;14.44;100.00
21817;BME280;13247;47.504;7.382;2023-04-28T01:31:43;97077.34;;;14.41;100.00
21817;BME280;13247;47.504;7.382;2023-04-28T01:34:28;97088.25;;;13.81;100.00
21817;BME280;13247;47.504;7.382;2023-04-28T01:37:12;97092.88;;;13.57;100.00
21817;BME280;13247;47.504;7.382;2023-04-28T01:39:57;97090.53;;;13.51;100.00
21817;BME280;13247;47.504;7.382;2023-04-28T01:42:42;97091.38;;;13.70;100.00
21817;BME280;13247;47.504;7.382;2023-04-28T01:45:27;97100.66;;;13.79;100.00
21817;BME280;13247;47.504;7.382;2023-04-28T01:48:11;97098.66;;;14.01;100.00
21817;BME280;13247;47.504;7.382;2023-04-28T01:50:56;97101.47;;;14.15;100.00
21817;BME280;13247;47.504;7.382;2023-04-28T01:53:41;97088.59;;;14.09;100.00
21817;BME280;13247;47.504;7.382;2023-04-28T01:56:26;97079.31;;;14.19;100.00
21817;BME280;13247;47.504;7.382;2023-04-28T01:59:10;97084.97;;;14.11;100.00
21817;BME280;13247;47.504;7.382;2023-04-28T02:01:55;97083.31;;;14.45;100.00
21817;BME280;13247;47.504;7.382;2023-04-28T02:04:40;97083.25;;;14.46;100.00
21817;BME280;13247;47.504;7.382;2023-04-28T02:07:25;97072.06;;;14.58;100.00
21817;BME280;13247;47.504;7.382;2023-04-28T02:10:10;97066.75;;;14.24;100.00
21817;BME280;13247;47.504;7.382;2023-04-28T02:12:55;97059.44;;;14.12;100.00
21817;BME280;13247;47.504;7.382;2023-04-28T02:15:41;97051.38;;;14.15;100.00
21817;BME280;13247;47.504;7.382;2023-04-28T02:18:26;97049.78;;;13.94;100.00
21817;BME280;13247;47.504;7.382;2023-04-28T02:21:12;97054.53;;;13.87;100.00
21817;BME280;13247;47.504;7.382;2023-04-28T02:23:56;97054.16;;;13.95;100.00
21817;BME280;13247;47.504;7.382;2023-04-28T02:26:41;97066.94;;;13.85;100.00
21817;BME280;13247;47.504;7.382;2023-04-28T02:29:26;97071.97;;;13.90;100.00
21817;BME280;13247;47.504;7.382;2023-04-28T02:32:11;97069.78;;;13.81;100.00
21817;BME280;13247;47.504;7.382;2023-04-28T02:34:55;97085.59;;;13.81;100.00
21817;BME280;13247;47.504;7.382;2023-04-28T02:37:40;97080.81;;;13.89;100.00
21817;BME280;13247;47.504;7.382;2023-04-28T02:40:25;97069.97;;;13.95;100.00
21817;BME280;13247;47.504;7.382;2023-04-28T02:43:10;97066.78;;;14.41;100.00
21817;BME280;13247;47.504;7.382;2023-04-28T02:45:55;97067.09;;;14.52;100.00
21817;BME280;13247;47.504;7.382;2023-04-28T02:48:40;97069.28;;;14.61;100.00
21817;BME280;13247;47.504;7.382;2023-04-28T02:51:25;97061.97;;;14.49;100.00
21817;BME280;13247;47.504;7.382;2023-04-28T02:54:13;97065.38;;;14.51;100.00
21817;BME280;13247;47.504;7.382;2023-04-28T02:56:58;97061.81;;;14.35;100.00
21817;BME280;13247;47.504;7.382;2023-04-28T02:59:43;97068.91;;;14.16;100.00
21817;BME280;13247;47.504;7.382;2023-04-28T03:02:27;97075.25;;;13.95;100.00
21817;BME280;13247;47.504;7.382;2023-04-28T03:05:12;97074.38;;;13.94;100.00
21817;BME280;13247;47.504;7.382;2023-04-28T03:07:56;97075.19;;;14.13;100.00
21817;BME280;13247;47.504;7.382;2023-04-28T03:10:41;97076.78;;;14.52;100.00
21817;BME280;13247;47.504;7.382;2023-04-28T03:13:25;97074.78;;;14.57;100.00
21817;BME280;13247;47.504;7.382;2023-04-28T03:16:11;97078.66;;;14.33;100.00
21817;BME280;13247;47.504;7.382;2023-04-28T03:18:55;97082.16;;;14.33;100.00
21817;BME280;13247;47.504;7.382;2023-04-28T03:21:42;97088.19;;;13.99;100.00
21817;BME280;13247;47.504;7.382;2023-04-28T03:24:27;97103.69;;;13.88;100.00
21817;BME280;13247;47.504;7.382;2023-04-28T03:27:12;97091.19;;;13.92;100.00
21817;BME280;13247;47.504;7.382;2023-04-28T03:29:57;97099.88;;;13.94;100.00
21817;BME280;13247;47.504;7.382;2023-04-28T03:32:41;97101.03;;;14.24;100.00
21817;BME280;13247;47.504;7.382;2023-04-28T03:35:26;97112.00;;;13.79;100.00
21817;BME280;13247;47.504;7.382;2023-04-28T03:38:11;97126.28;;;13.38;100.00
21817;BME280;13247;47.504;7.382;2023-04-28T03:40:56;97134.97;;;13.40;100.00
21817;BME280;13247;47.504;7.382;2023-04-28T03:43:40;97133.91;;;13.44;100.00
21817;BME280;13247;47.504;7.382;2023-04-28T03:46:25;97141.59;;;13.67;100.00
21817;BME280;13247;47.504;7.382;2023-04-28T03:49:10;97138.66;;;13.73;100.00
21817;BME280;13247;47.504;7.382;2023-04-28T03:51:55;97122.78;;;13.93;100.00
21817;BME280;13247;47.504;7.382;2023-04-28T03:54:40;97129.47;;;13.82;100.00
21817;BME280;13247;47.504;7.382;2023-04-28T03:57:25;97135.41;;;13.68;100.00
21817;BME280;13247;47.504;7.382;2023-04-28T04:00:12;97137.38;;;13.82;100.00
21817;BME280;13247;47.504;7.382;2023-04-28T04:02:57;97142.88;;;13.96;100.00
21817;BME280;13247;47.504;7.382;2023-04-28T04:05:42;97137.91;;;14.07;100.00
21817;BME280;13247;47.504;7.382;2023-04-28T04:08:26;97138.25;;;14.18;100.00
21817;BME280;13247;47.504;7.382;2023-04-28T04:11:11;97127.63;;;14.19;100.00
21817;BME280;13247;47.504;7.382;2023-04-28T04:13:56;97139.53;;;13.74;100.00
21817;BME280;13247;47.504;7.382;2023-04-28T04:16:41;97138.38;;;13.79;100.00
21817;BME280;13247;47.504;7.382;2023-04-28T04:19:26;97127.47;;;13.87;100.00
21817;BME280;13247;47.504;7.382;2023-04-28T04:22:11;97131.81;;;13.88;100.00
21817;BME280;13247;47.504;7.382;2023-04-28T04:24:55;97128.09;;;13.92;100.00
21817;BME280;13247;47.504;7.382;2023-04-28T04:27:40;97134.19;;;14.11;100.00
21817;BME280;13247;47.504;7.382;2023-04-28T04:30:25;97126.31;;;14.28;100.00
21817;BME280;13247;47.504;7.382;2023-04-28T04:33:10;97122.19;;;14.41;100.00
21817;BME280;13247;47.504;7.382;2023-04-28T04:35:54;97119.31;;;14.46;100.00
21817;BME280;13247;47.504;7.382;2023-04-28T04:38:39;97119.06;;;14.33;100.00
21817;BME280;13247;47.504;7.382;2023-04-28T04:41:26;97120.19;;;14.46;100.00
21817;BME280;13247;47.504;7.382;2023-04-28T04:44:10;97117.34;;;14.32;100.00
21817;BME280;13247;47.504;7.382;2023-04-28T04:46:55;97122.72;;;14.12;100.00
21817;BME280;13247;47.504;7.382;2023-04-28T04:49:42;97131.16;;;14.01;100.00
21817;BME280;13247;47.504;7.382;2023-04-28T04:52:28;97127.53;;;14.04;100.00
21817;BME280;13247;47.504;7.382;2023-04-28T04:55:12;97112.25;;;14.29;100.00
21817;BME280;13247;47.504;7.382;2023-04-28T04:57:57;97116.44;;;14.33;100.00
21817;BME280;13247;47.504;7.382;2023-04-28T05:00:41;97127.22;;;14.29;100.00
21817;BME280;13247;47.504;7.382;2023-04-28T05:03:26;97123.41;;;14.34;100.00
21817;BME280;13247;47.504;7.382;2023-04-28T05:06:11;97122.00;;;14.27;100.00
21817;BME280;13247;47.504;7.382;2023-04-28T05:08:55;97119.06;;;14.33;100.00
21817;BME280;13247;47.504;7.382;2023-04-28T05:11:41;97113.50;;;14.39;100.00
21817;BME280;13247;47.504;7.382;2023-04-28T05:14:26;97117.34;;;14.32;100.00
21817;BME280;13247;47.504;7.382;2023-04-28T05:17:11;97122.63;;;14.32;100.00
21817;BME280;13247;47.504;7.382;2023-04-28T05:19:56;97125.44;;;14.29;100.00
21817;BME280;13247;47.504;7.382;2023-04-28T05:22:40;97131.59;;;14.28;100.00
21817;BME280;13247;47.504;7.382;2023-04-28T05:25:25;97142.41;;;14.05;100.00
21817;BME280;13247;47.504;7.382;2023-04-28T05:28:13;97138.91;;;14.23;100.00
21817;BME280;13247;47.504;7.382;2023-04-28T05:30:58;97140.50;;;14.26;100.00
21817;BME280;13247;47.504;7.382;2023-04-28T05:33:42;97144.75;;;14.11;100.00
21817;BME280;13247;47.504;7.382;2023-04-28T05:36:27;97136.00;;;13.92;100.00
21817;BME280;13247;47.504;7.382;2023-04-28T05:39:11;97142.34;;;14.06;100.00
21817;BME280;13247;47.504;7.382;2023-04-28T05:41:56;97129.31;;;14.39;100.00
21817;BME280;13247;47.504;7.382;2023-04-28T05:44:42;97129.63;;;14.33;100.00
21817;BME280;13247;47.504;7.382;2023-04-28T05:47:26;97126.31;;;14.30;100.00
21817;BME280;13247;47.504;7.382;2023-04-28T05:50:11;97128.19;;;14.26;100.00
21817;BME280;13247;47.504;7.382;2023-04-28T05:52:55;97130.72;;;14.29;100.00
21817;BME280;13247;47.504;7.382;2023-04-28T05:55:40;97132.25;;;14.33;100.00
21817;BME280;13247;47.504;7.382;2023-04-28T05:58:25;97137.88;;;14.26;100.00
21817;BME280;13247;47.504;7.382;2023-04-28T06:01:10;97122.34;;;14.19;100.00
21817;BME280;13247;47.504;7.382;2023-04-28T06:03:55;97129.63;;;14.33;100.00
21817;BME280;13247;47.504;7.382;2023-04-28T06:06:42;97131.75;;;14.25;100.00
21817;BME280;13247;47.504;7.382;2023-04-28T06:09:26;97136.75;;;14.31;100.00
21817;BME280;13247;47.504;7.382;2023-04-28T06:12:11;97130.50;;;14.34;100.00
21817;BME280;13247;47.504;7.382;2023-04-28T06:14:55;97121.63;;;14.35;100.00
21817;BME280;13247;47.504;7.382;2023-04-28T06:17:41;97131.50;;;14.31;100.00
21817;BME280;13247;47.504;7.382;2023-04-28T06:20:26;97134.22;;;14.30;100.00
21817;BME280;13247;47.504;7.382;2023-04-28T06:23:11;97145.38;;;14.16;100.00
21817;BME280;13247;47.504;7.382;2023-04-28T06:25:55;97146.59;;;14.09;100.00
21817;BME280;13247;47.504;7.382;2023-04-28T06:28:43;97164.00;;;13.94;100.00
21817;BME280;13247;47.504;7.382;2023-04-28T06:31:29;97165.28;;;13.86;100.00
21817;BME280;13247;47.504;7.382;2023-04-28T06:34:14;97157.16;;;14.09;100.00
21817;BME280;13247;47.504;7.382;2023-04-28T06:36:58;97149.47;;;13.86;100.00
21817;BME280;13247;47.504;7.382;2023-04-28T06:39:43;97146.84;;;13.86;100.00
21817;BME280;13247;47.504;7.382;2023-04-28T06:42:27;97143.88;;;13.93;100.00
21817;BME280;13247;47.504;7.382;2023-04-28T06:45:12;97149.19;;;13.92;100.00
21817;BME280;13247;47.504;7.382;2023-04-28T06:47:57;97158.19;;;13.69;100.00
21817;BME280;13247;47.504;7.382;2023-04-28T06:50:42;97182.88;;;13.67;100.00
21817;BME280;13247;47.504;7.382;2023-04-28T06:53:26;97190.94;;;13.64;100.00
21817;BME280;13247;47.504;7.382;2023-04-28T06:56:11;97180.81;;;13.92;100.00
21817;BME280;13247;47.504;7.382;2023-04-28T06:58:55;97181.63;;;14.12;100.00
21817;BME280;13247;47.504;7.382;2023-04-28T07:01:40;97177.56;;;14.05;100.00
21817;BME280;13247;47.504;7.382;2023-04-28T07:04:25;97168.81;;;14.22;100.00
21817;BME280;13247;47.504;7.382;2023-04-28T07:07:10;97170.97;;;14.33;100.00
21817;BME280;13247;47.504;7.382;2023-04-28T07:09:56;97165.22;;;14.06;100.00
21817;BME280;13247;47.504;7.382;2023-04-28T07:12:42;97171.88;;;13.96;100.00
21817;BME280;13247;47.504;7.382;2023-04-28T07:15:27;97166.06;;;14.25;100.00
21817;BME280;13247;47.504;7.382;2023-04-28T07:18:11;97169.81;;;14.19;100.00
21817;BME280;13247;47.504;7.382;2023-04-28T07:20:56;97177.97;;;14.34;100.00
21817;BME280;13247;47.504;7.382;2023-04-28T07:23:44;97177.41;;;14.08;100.00
21817;BME280;13247;47.504;7.382;2023-04-28T07:26:29;97181.78;;;14.27;100.00
21817;BME280;13247;47.504;7.382;2023-04-28T07:29:14;97175.81;;;14.23;100.00
21817;BME280;13247;47.504;7.382;2023-04-28T07:32:00;97184.50;;;14.25;100.00
21817;BME280;13247;47.504;7.382;2023-04-28T07:34:45;97185.81;;;14.35;100.00
21817;BME280;13247;47.504;7.382;2023-04-28T07:37:30;97188.66;;;14.12;100.00
21817;BME280;13247;47.504;7.382;2023-04-28T07:40:15;97187.38;;;14.21;100.00
21817;BME280;13247;47.504;7.382;2023-04-28T07:43:00;97182.22;;;14.36;100.00
21817;BME280;13247;47.504;7.382;2023-04-28T07:45:44;97176.19;;;14.51;100.00
21817;BME280;13247;47.504;7.382;2023-04-28T07:48:33;97177.00;;;14.70;100.00
21817;BME280;13247;47.504;7.382;2023-04-28T07:51:18;97173.25;;;14.57;100.00
21817;BME280;13247;47.504;7.382;2023-04-28T07:54:02;97182.66;;;14.46;100.00
21817;BME280;13247;47.504;7.382;2023-04-28T07:56:47;97178.84;;;14.68;100.00
21817;BME280;13247;47.504;7.382;2023-04-28T07:59:35;97184.78;;;14.73;100.00
21817;BME280;13247;47.504;7.382;2023-04-28T08:02:20;97183.59;;;14.96;100.00
21817;BME280;13247;47.504;7.382;2023-04-28T08:05:05;97180.97;;;14.96;100.00
21817;BME280;13247;47.504;7.382;2023-04-28T08:07:52;97182.59;;;14.99;100.00
21817;BME280;13247;47.504;7.382;2023-04-28T08:10:37;97175.78;;;15.27;100.00
21817;BME280;13247;47.504;7.382;2023-04-28T08:13:24;97178.38;;;15.46;100.00
21817;BME280;13247;47.504;7.382;2023-04-28T08:16:12;97178.38;;;15.46;100.00
21817;BME280;13247;47.504;7.382;2023-04-28T08:18:57;97183.97;;;15.73;100.00
21817;BME280;13247;47.504;7.382;2023-04-28T08:21:42;97184.56;;;15.93;100.00
21817;BME280;13247;47.504;7.382;2023-04-28T08:24:27;97179.31;;;16.09;100.00
21817;BME280;13247;47.504;7.382;2023-04-28T08:27:13;97177.66;;;16.37;100.00
21817;BME280;13247;47.504;7.382;2023-04-28T08:29:58;97177.16;;;16.31;100.00
21817;BME280;13247;47.504;7.382;2023-04-28T08:32:43;97177.91;;;16.48;100.00
21817;BME280;13247;47.504;7.382;2023-04-28T08:35:29;97171.84;;;16.46;100.00
21817;BME280;13247;47.504;7.382;2023-04-28T08:38:14;97167.25;;;16.50;100.00
21817;BME280;13247;47.504;7.382;2023-04-28T08:41:03;97185.16;;;16.61;100.00
21817;BME280;13247;47.504;7.382;2023-04-28T08:43:48;97177.59;;;16.55;100.00
21817;BME280;13247;47.504;7.382;2023-04-28T08:46:34;97186.72;;;16.49;100.00
21817;BME280;13247;47.504;7.382;2023-04-28T08:49:23;97195.88;;;16.28;100.00
21817;BME280;13247;47.504;7.382;2023-04-28T08:52:15;97192.97;;;16.32;100.00
21817;BME280;13247;47.504;7.382;2023-04-28T08:55:05;97205.09;;;16.36;100.00
21817;BME280;13247;47.504;7.382;2023-04-28T08:57:50;97201.47;;;16.37;100.00
21817;BME280;13247;47.504;7.382;2023-04-28T09:00:36;97210.38;;;16.52;100.00
21817;BME280;13247;47.504;7.382;2023-04-28T09:03:22;97194.91;;;16.60;100.00
21817;BME280;13247;47.504;7.382;2023-04-28T09:06:07;97191.63;;;16.71;100.00
21817;BME280;13247;47.504;7.382;2023-04-28T09:08:52;97191.72;;;16.69;100.00
21817;BME280;13247;47.504;7.382;2023-04-28T09:11:57;97188.66;;;16.77;100.00
21817;BME280;13247;47.504;7.382;2023-04-28T09:14:42;97192.63;;;16.84;100.00
21817;BME280;13247;47.504;7.382;2023-04-28T09:17:27;97190.38;;;16.92;100.00
21817;BME280;13247;47.504;7.382;2023-04-28T09:20:21;97189.88;;;16.85;100.00
21817;BME280;13247;47.504;7.382;2023-04-28T09:23:17;97195.75;;;17.06;100.00
21817;BME280;13247;47.504;7.382;2023-04-28T09:26:04;97188.28;;;17.12;100.00
21817;BME280;13247;47.504;7.382;2023-04-28T09:29:11;97185.53;;;17.14;100.00
21817;BME280;13247;47.504;7.382;2023-04-28T09:34:56;97193.00;;;17.21;100.00
21817;BME280;13247;47.504;7.382;2023-04-28T09:37:41;97190.28;;;17.23;100.00
21817;BME280;13247;47.504;7.382;2023-04-28T09:40:27;97199.00;;;17.39;100.00
21817;BME280;13247;47.504;7.382;2023-04-28T09:43:33;97199.09;;;17.67;100.00
21817;BME280;13247;47.504;7.382;2023-04-28T09:46:27;97191.56;;;17.60;100.00
21817;BME280;13247;47.504;7.382;2023-04-28T09:49:13;97197.34;;;17.66;100.00
21817;BME280;13247;47.504;7.382;2023-04-28T09:52:12;97195.47;;;17.82;100.00
21817;BME280;13247;47.504;7.382;2023-04-28T09:54:57;97196.25;;;17.84;100.00
21817;BME280;13247;47.504;7.382;2023-04-28T09:57:44;97189.00;;;18.00;100.00
21817;BME280;13247;47.504;7.382;2023-04-28T10:00:33;97196.94;;;18.15;100.00
21817;BME280;13247;47.504;7.382;2023-04-28T10:03:21;97192.00;;;18.23;100.00
21817;BME280;13247;47.504;7.382;2023-04-28T10:06:07;97188.41;;;18.24;100.00
21817;BME280;13247;47.504;7.382;2023-04-28T10:08:52;97187.06;;;18.17;100.00
21817;BME280;13247;47.504;7.382;2023-04-28T10:11:38;97193.13;;;18.19;100.00
21817;BME280;13247;47.504;7.382;2023-04-28T10:14:24;97197.13;;;18.26;100.00
21817;BME280;13247;47.504;7.382;2023-04-28T10:17:11;97187.16;;;18.70;100.00
21817;BME280;13247;47.504;7.382;2023-04-28T10:19:56;97187.97;;;18.58;100.00
21817;BME280;13247;47.504;7.382;2023-04-28T10:25:55;97186.47;;;18.54;100.00
21817;BME280;13247;47.504;7.382;2023-04-28T10:28:49;97185.03;;;18.48;100.00
21817;BME280;13247;47.504;7.382;2023-04-28T10:31:34;97193.66;;;18.38;100.00
21817;BME280;13247;47.504;7.382;2023-04-28T10:34:23;97186.47;;;18.54;100.00
21817;BME280;13247;47.504;7.382;2023-04-28T10:37:12;97196.28;;;18.66;100.00
21817;BME280;13247;47.504;7.382;2023-04-28T10:40:30;97186.13;;;18.85;100.00
21817;BME280;13247;47.504;7.382;2023-04-28T10:46:09;97183.00;;;19.18;100.00
21817;BME280;13247;47.504;7.382;2023-04-28T10:48:57;97184.91;;;19.03;100.00
21817;BME280;13247;47.504;7.382;2023-04-28T10:51:41;97173.91;;;19.22;100.00
21817;BME280;13247;47.504;7.382;2023-04-28T10:54:26;97175.16;;;19.29;100.00
21817;BME280;13247;47.504;7.382;2023-04-28T10:57:17;97178.28;;;19.48;100.00
21817;BME280;13247;47.504;7.382;2023-04-28T11:00:27;97179.84;;;19.25;100.00
21817;BME280;13247;47.504;7.382;2023-04-28T11:06:39;97182.81;;;19.21;100.00
21817;BME280;13247;47.504;7.382;2023-04-28T11:12:15;97178.78;;;19.15;100.00
21817;BME280;13247;47.504;7.382;2023-04-28T11:15:11;97175.63;;;19.48;100.00
21817;BME280;13247;47.504;7.382;2023-04-28T11:17:57;97173.50;;;19.66;100.00
21817;BME280;13247;47.504;7.382;2023-04-28T11:20:43;97175.16;;;19.92;100.00
21817;BME280;13247;47.504;7.382;2023-04-28T11:23:32;97176.75;;;19.94;100.00
21817;BME280;13247;47.504;7.382;2023-04-28T11:26:19;97169.97;;;19.78;100.00
21817;BME280;13247;47.504;7.382;2023-04-28T11:29:04;97172.28;;;19.95;100.00
21817;BME280;13247;47.504;7.382;2023-04-28T11:31:50;97167.88;;;20.06;100.00
21817;BME280;13247;47.504;7.382;2023-04-28T11:34:36;97154.56;;;20.06;100.00
21817;BME280;13247;47.504;7.382;2023-04-28T11:37:21;97154.31;;;19.86;100.00
21817;BME280;13247;47.504;7.382;2023-04-28T11:40:13;97156.19;;;19.96;100.00
21817;BME280;13247;47.504;7.382;2023-04-28T11:42:57;97157.50;;;19.91;100.00
21817;BME280;13247;47.504;7.382;2023-04-28T11:45:47;97152.09;;;19.67;100.00
21817;BME280;13247;47.504;7.382;2023-04-28T11:48:31;97143.84;;;20.08;100.00
21817;BME280;13247;47.504;7.382;2023-04-28T11:51:33;97157.03;;;20.22;100.00
21817;BME280;13247;47.504;7.382;2023-04-28T11:54:23;97142.03;;;20.21;100.00
21817;BME280;13247;47.504;7.382;2023-04-28T11:57:18;97140.09;;;20.23;100.00
21817;BME280;13247;47.504;7.382;2023-04-28T12:00:15;97129.09;;;20.51;100.00
21817;BME280;13247;47.504;7.382;2023-04-28T12:03:08;97125.16;;;20.68;100.00
21817;BME280;13247;47.504;7.382;2023-04-28T12:05:53;97131.47;;;21.01;100.00
21817;BME280;13247;47.504;7.382;2023-04-28T12:08:37;97131.88;;;21.08;100.00
21817;BME280;13247;47.504;7.382;2023-04-28T12:11:22;97131.28;;;21.04;100.00
21817;BME280;13247;47.504;7.382;2023-04-28T12:14:07;97116.31;;;21.02;100.00
21817;BME280;13247;47.504;7.382;2023-04-28T12:16:53;97128.38;;;20.49;100.00
21817;BME280;13247;47.504;7.382;2023-04-28T12:19:44;97127.47;;;20.96;100.00
21817;BME280;13247;47.504;7.382;2023-04-28T12:22:29;97124.16;;;21.05;100.00
21817;BME280;13247;47.504;7.382;2023-04-28T12:25:15;97116.28;;;21.15;100.00
21817;BME280;13247;47.504;7.382;2023-04-28T12:28:02;97112.19;;;21.33;100.00
21817;BME280;13247;47.504;7.382;2023-04-28T12:30:47;97103.06;;;21.13;100.00
21817;BME280;13247;47.504;7.382;2023-04-28T12:33:32;97101.41;;;21.45;100.00
21817;BME280;13247;47.504;7.382;2023-04-28T12:36:24;97096.44;;;21.41;100.00
21817;BME280;13247;47.504;7.382;2023-04-28T12:39:13;97102.97;;;21.26;100.00
21817;BME280;13247;47.504;7.382;2023-04-28T12:42:01;97092.88;;;21.07;100.00
21817;BME280;13247;47.504;7.382;2023-04-28T12:44:46;97100.31;;;21.70;100.00
21817;BME280;13247;47.504;7.382;2023-04-28T12:47:31;97102.75;;;22.06;100.00
21817;BME280;13247;47.504;7.382;2023-04-28T12:50:16;97091.84;;;21.98;100.00
21817;BME280;13247;47.504;7.382;2023-04-28T12:53:00;97094.53;;;21.87;100.00
21817;BME280;13247;47.504;7.382;2023-04-28T12:55:45;97089.25;;;22.08;100.00
21817;BME280;13247;47.504;7.382;2023-04-28T12:58:29;97087.69;;;22.05;100.00
21817;BME280;13247;47.504;7.382;2023-04-28T13:01:14;97078.56;;;22.19;100.00
21817;BME280;13247;47.504;7.382;2023-04-28T13:03:59;97082.72;;;22.01;100.00
21817;BME280;13247;47.504;7.382;2023-04-28T13:06:44;97076.03;;;22.06;100.00
21817;BME280;13247;47.504;7.382;2023-04-28T13:09:29;97074.53;;;22.24;100.00
21817;BME280;13247;47.504;7.382;2023-04-28T13:12:14;97078.66;;;22.28;100.00
21817;BME280;13247;47.504;7.382;2023-04-28T13:15:01;97064.19;;;22.31;100.00
21817;BME280;13247;47.504;7.382;2023-04-28T13:17:47;97071.84;;;22.24;100.00
21817;BME280;13247;47.504;7.382;2023-04-28T13:20:32;97066.97;;;22.40;100.00
21817;BME280;13247;47.504;7.382;2023-04-28T13:23:16;97060.75;;;22.08;98.10
21817;BME280;13247;47.504;7.382;2023-04-28T13:26:01;97066.44;;;22.04;100.00
21817;BME280;13247;47.504;7.382;2023-04-28T13:28:47;97059.53;;;22.01;100.00
21817;BME280;13247;47.504;7.382;2023-04-28T13:31:32;97055.44;;;21.64;100.00
21817;BME280;13247;47.504;7.382;2023-04-28T13:34:17;97048.84;;;22.01;100.00
21817;BME280;13247;47.504;7.382;2023-04-28T13:37:02;97047.66;;;21.72;100.00
21817;BME280;13247;47.504;7.382;2023-04-28T13:39:46;97041.13;;;21.43;100.00
21817;BME280;13247;47.504;7.382;2023-04-28T13:42:31;97039.31;;;21.43;100.00
21817;BME280;13247;47.504;7.382;2023-04-28T13:45:16;97046.22;;;21.46;100.00
21817;BME280;13247;47.504;7.382;2023-04-28T13:48:00;97041.38;;;21.29;100.00
21817;BME280;13247;47.504;7.382;2023-04-28T13:50:46;97036.53;;;21.12;100.00
21817;BME280;13247;47.504;7.382;2023-04-28T13:53:31;97048.63;;;21.04;100.00
21817;BME280;13247;47.504;7.382;2023-04-28T13:56:16;97040.28;;;21.20;100.00
21817;BME280;13247;47.504;7.382;2023-04-28T13:59:01;97031.44;;;21.31;100.00
21817;BME280;13247;47.504;7.382;2023-04-28T14:01:46;97020.13;;;21.27;100.00
21817;BME280;13247;47.504;7.382;2023-04-28T14:04:31;97021.00;;;21.05;100.00
21817;BME280;13247;47.504;7.382;2023-04-28T14:07:16;97017.97;;;21.21;100.00
21817;BME280;13247;47.504;7.382;2023-04-28T14:10:01;97002.56;;;21.14;100.00
21817;BME280;13247;47.504;7.382;2023-04-28T14:12:45;96999.19;;;21.12;100.00
21817;BME280;13247;47.504;7.382;2023-04-28T14:15:30;96999.28;;;21.10;100.00
21817;BME280;13247;47.504;7.382;2023-04-28T14:18:15;96999.16;;;21.34;100.00
21817;BME280;13247;47.504;7.382;2023-04-28T14:21:00;97005.47;;;21.55;100.00
21817;BME280;13247;47.504;7.382;2023-04-28T14:23:46;96992.94;;;21.00;100.00
21817;BME280;13247;47.504;7.382;2023-04-28T14:26:31;96998.00;;;20.81;100.00
21817;BME280;13247;47.504;7.382;2023-04-28T14:29:16;96991.72;;;20.82;100.00
21817;BME280;13247;47.504;7.382;2023-04-28T14:32:01;96981.88;;;20.82;100.00
21817;BME280;13247;47.504;7.382;2023-04-28T14:34:47;96980.34;;;20.80;100.00
21817;BME280;13247;47.504;7.382;2023-04-28T14:37:33;96975.84;;;20.80;100.00
21817;BME280;13247;47.504;7.382;2023-04-28T14:40:18;96975.09;;;20.78;100.00
21817;BME280;13247;47.504;7.382;2023-04-28T14:43:02;96971.09;;;20.73;100.00